TimeMDT,TemperatureF,Dew PointF,Humidity,Sea Level PressureIn,VisibilityMPH,Wind Direction,Wind SpeedMPH,Gust SpeedMPH,PrecipitationIn,Events,Conditions,WindDirDegrees,DateUTC
12:53 AM,78.1,52.0,40,29.93,10.0,SE,5.8,-,N/A,,Clear,130,2013-07-18 06:53:00
1:53 AM,73.9,54.0,50,29.93,10.0,Calm,Calm,-,N/A,,Clear,0,2013-07-18 07:53:00
2:53 AM,72.0,53.1,51,29.93,10.0,South,5.8,-,N/A,,Clear,180,2013-07-18 08:53:00
3:53 AM,71.1,54.0,55,29.94,10.0,South,3.5,-,N/A,,Clear,190,2013-07-18 09:53:00
4:53 AM,69.1,54.0,58,29.94,10.0,SW,5.8,-,N/A,,Clear,220,2013-07-18 10:53:00
5:53 AM,69.1,54.0,58,29.94,10.0,WSW,5.8,-,N/A,,Clear,250,2013-07-18 11:53:00
6:53 AM,72.0,53.1,51,29.97,10.0,NW,3.5,-,N/A,,Clear,310,2013-07-18 12:53:00
7:53 AM,73.0,54.0,51,29.98,10.0,South,5.8,-,N/A,,Clear,190,2013-07-18 13:53:00
8:53 AM,77.0,54.0,45,29.98,10.0,Calm,Calm,-,N/A,,Clear,0,2013-07-18 14:53:00
9:53 AM,80.1,55.0,42,29.98,10.0,South,3.5,-,N/A,,Clear,190,2013-07-18 15:53:00
10:53 AM,82.9,52.0,34,29.97,10.0,Variable,3.5,-,N/A,,Clear,0,2013-07-18 16:53:00
11:53 AM,88.0,53.1,30,29.96,10.0,Variable,3.5,-,N/A,,Clear,0,2013-07-18 17:53:00
12:53 PM,88.0,54.0,31,29.95,10.0,WNW,3.5,-,N/A,,Clear,290,2013-07-18 18:53:00
1:53 PM,91.0,55.0,29,29.92,10.0,Calm,Calm,-,N/A,,Clear,0,2013-07-18 19:53:00
2:53 PM,91.9,55.0,29,29.91,10.0,NW,6.9,-,N/A,,Clear,320,2013-07-18 20:53:00
3:53 PM,93.9,50.0,22,29.87,10.0,NW,6.9,-,N/A,,Clear,320,2013-07-18 21:53:00
4:53 PM,96.1,45.0,17,29.86,10.0,WNW,6.9,-,N/A,,Clear,290,2013-07-18 22:53:00
5:53 PM,96.1,48.9,20,29.85,10.0,NNW,11.5,-,N/A,,Clear,330,2013-07-18 23:53:00
6:53 PM,95.0,46.9,19,29.83,10.0,NNW,6.9,-,N/A,,Clear,330,2013-07-19 00:53:00
7:53 PM,91.9,46.0,21,29.83,10.0,NNW,6.9,-,N/A,,Clear,340,2013-07-19 01:53:00
8:53 PM,87.1,48.0,26,29.85,10.0,NNW,6.9,-,N/A,,Clear,330,2013-07-19 02:53:00
9:53 PM,84.9,52.0,32,29.86,10.0,NNE,5.8,-,N/A,,Clear,20,2013-07-19 03:53:00
10:53 PM,80.1,52.0,38,29.88,10.0,South,4.6,-,N/A,,Clear,170,2013-07-19 04:53:00
11:53 PM,75.9,48.9,38,29.88,10.0,Calm,Calm,-,N/A,,Clear,0,2013-07-19 05:53:00